Decoded Metar for KSIF (REIDSVILLE in NC, USA) (IATA:SIF) | Meteo·Mobile Aviation Weather
aviador You're here:

KSIF Decoded Metar

REIDSVILLE in NC, USA
Report Time2019-09-21 09:15:00
UTC Time2019-09-21 09:18:12
Flight Rules vfr VFR
WindCalm
Visibility9999 m
Phenomena:N/A
Clouds:N/A
Expected CloudBase > 400 ft AGL from Temp-Dew spread
CeilingNone
Temp15°C (ISA +1)
Dew Point14°C (94% RH)
QNH1025 hPa
Density Alt666 ft
Elevation692 ft
Report Wrong Elevation
Raw Report
KSIF 210915Z AUTO 00000KT 10SM CLR 15/14 A3027 RMK AO2
T01460135=

Extra information for KSIF:More info

Metar Taf Metar & Taf Last 4 Metars F.Rules Stats Wind Profile Meteogram Temp Stats Airport Information Weather charts Add Link Nearby VenuesMetar ALERT Operation Metar Decoded Social comments

AIRNAV info for KSIF